Time;durP1;ratioP1;P1;durP2;ratioP2;P2;SDS_P1;SDS_P2;PMS_P1;PMS_P2;Temp;Humidity;BMP_temperature;BMP_pressure;BME280_temperature;BME280_humidity;BME280_pressure;Samples;Min_cycle;Max_cycle;Signal;HPM_P1;HPM_P2
2022/06/05 00:00:22;;;;;;;4.78;3.55;;;;;;;21.71;48.79;101616.03;5032898;28;20512;-64
2022/06/05 00:03:38;;;;;;;4.97;3.50;;;;;;;21.71;48.66;101621.34;5032445;28;20017;-64
2022/06/05 00:06:04;;;;;;;4.90;3.80;;;;;;;21.72;48.70;101627.47;5006658;28;20116;-64
2022/06/05 00:08:44;;;;;;;4.78;3.40;;;;;;;21.71;48.66;101620.47;5031966;28;20057;-65
2022/06/05 00:11:11;;;;;;;5.80;3.78;;;;;;;21.71;48.36;101608.06;5032788;28;20026;-64
2022/06/05 00:13:46;;;;;;;5.00;3.72;;;;;;;21.70;48.62;101601.06;5033036;28;20030;-64
2022/06/05 00:16:15;;;;;;;5.20;3.42;;;;;;;21.71;48.37;101596.59;5031875;28;20028;-64
2022/06/05 00:18:42;;;;;;;5.20;3.75;;;;;;;21.68;48.62;101595.06;5032444;28;20156;-64
2022/06/05 00:21:07;;;;;;;4.47;3.67;;;;;;;21.69;48.74;101595.91;5032393;28;20025;-64
2022/06/05 00:23:33;;;;;;;4.93;3.50;;;;;;;21.69;48.51;101595.91;5032152;28;20392;-64
2022/06/05 00:26:11;;;;;;;4.30;3.30;;;;;;;21.69;48.79;101598.56;5032487;28;20025;-63
2022/06/05 00:28:48;;;;;;;5.88;3.42;;;;;;;21.69;48.46;101596.72;5032462;28;20064;-64
2022/06/05 00:31:16;;;;;;;4.57;3.35;;;;;;;21.69;48.45;101590.59;5032090;28;20113;-64
2022/06/05 00:33:42;;;;;;;5.28;3.65;;;;;;;21.69;48.42;101587.94;5032569;28;20036;-64
2022/06/05 00:36:25;;;;;;;4.50;3.63;;;;;;;21.68;48.45;101579.16;5031408;28;20055;-64
2022/06/05 00:39:19;;;;;;;4.57;3.33;;;;;;;21.69;48.49;101575.50;5032667;28;20140;-64
2022/06/05 00:42:04;;;;;;;4.90;3.55;;;;;;;21.67;48.22;101571.31;5032596;28;20030;-63
2022/06/05 00:44:29;;;;;;;5.95;4.03;;;;;;;21.66;48.72;101566.97;5031577;28;20484;-64
2022/06/05 00:46:57;;;;;;;4.70;3.37;;;;;;;21.66;48.15;101578.41;5032443;28;20059;-64
2022/06/05 00:49:28;;;;;;;5.10;3.90;;;;;;;21.67;48.32;101571.31;5033219;28;20340;-64
2022/06/05 00:51:54;;;;;;;5.20;3.70;;;;;;;21.67;48.49;101571.31;5035363;28;20041;-64
2022/06/05 00:54:19;;;;;;;4.40;3.50;;;;;;;21.65;48.55;101566.16;5036448;28;20017;-64
2022/06/05 00:56:44;;;;;;;4.90;3.53;;;;;;;21.65;48.53;101559.97;5036192;28;20532;-64
2022/06/05 00:59:14;;;;;;;4.32;3.53;;;;;;;21.64;48.33;101564.47;5035253;28;20277;-64
2022/06/05 01:01:41;;;;;;;4.78;3.50;;;;;;;21.64;48.56;101572.41;5036311;28;20539;-64
2022/06/05 01:04:07;;;;;;;5.88;4.38;;;;;;;21.65;48.45;101570.59;5034988;28;20044;-64
2022/06/05 01:06:32;;;;;;;4.63;3.42;;;;;;;21.64;48.37;101576.88;5035864;28;20389;-64
2022/06/05 01:08:57;;;;;;;5.32;3.28;;;;;;;21.63;48.64;101575.19;5035724;28;20026;-64
2022/06/05 01:11:53;;;;;;;4.60;3.63;;;;;;;21.63;48.35;101570.72;5035162;28;20133;-64
2022/06/05 01:14:24;;;;;;;4.90;3.50;;;;;;;21.64;48.29;101575.06;5035781;28;20037;-64
2022/06/05 01:17:01;;;;;;;5.80;3.47;;;;;;;21.65;48.48;101581.19;5035711;28;20021;-64
2022/06/05 01:19:40;;;;;;;4.90;3.60;;;;;;;21.62;47.98;101624.75;5034887;28;20029;-64
2022/06/05 01:22:42;;;;;;;4.70;3.40;;;;;;;21.63;48.08;101649.47;5035391;28;20377;-63
2022/06/05 01:25:32;;;;;;;4.70;3.58;;;;;;;21.62;48.24;101594.72;5034488;28;20424;-64
2022/06/05 01:28:07;;;;;;;4.63;3.45;;;;;;;21.63;48.03;101628.25;5035136;28;20091;-64
2022/06/05 01:30:41;;;;;;;5.35;3.67;;;;;;;21.62;48.23;101651.28;5035702;28;20083;-64
2022/06/05 01:33:15;;;;;;;4.97;3.97;;;;;;;21.61;47.88;101615.09;5034304;28;20025;-63
2022/06/05 01:35:57;;;;;;;4.93;4.03;;;;;;;21.61;48.00;101562.06;5035148;28;20041;-64
2022/06/05 01:38:33;;;;;;;5.03;3.45;;;;;;;21.62;48.52;101587.63;5035354;28;20798;-64
2022/06/05 01:41:06;;;;;;;5.20;3.40;;;;;;;21.61;48.38;101611.63;5034457;28;20022;-64
2022/06/05 01:43:36;;;;;;;4.72;3.83;;;;;;;21.62;48.31;101607.97;5035278;28;20048;-65
2022/06/05 01:46:08;;;;;;;4.55;3.50;;;;;;;21.62;48.72;101590.28;5034665;28;20476;-64
2022/06/05 01:48:39;;;;;;;4.40;3.33;;;;;;;21.61;48.64;101577.16;5034446;28;20030;-64
2022/06/05 01:51:12;;;;;;;5.22;3.45;;;;;;;21.60;48.87;101580.75;5034972;28;20048;-64
2022/06/05 01:53:42;;;;;;;4.95;3.85;;;;;;;21.60;48.73;101580.75;5034447;28;20025;-64
2022/06/05 01:56:19;;;;;;;5.40;3.80;;;;;;;21.59;48.86;101574.63;5034563;28;20033;-64
2022/06/05 01:58:49;;;;;;;4.55;3.58;;;;;;;21.60;49.05;101554.25;5034885;28;20056;-65
2022/06/05 02:01:21;;;;;;;5.28;3.70;;;;;;;21.59;48.91;101545.44;5033342;28;20123;-65
2022/06/05 02:03:54;;;;;;;4.68;3.50;;;;;;;21.60;48.76;101548.94;5034908;28;20025;-64
2022/06/05 02:06:26;;;;;;;4.90;3.58;;;;;;;21.59;49.11;101539.28;5035007;28;20021;-64
2022/06/05 02:08:56;;;;;;;5.22;4.07;;;;;;;21.59;48.71;101536.63;5033829;28;20026;-64
2022/06/05 02:11:27;;;;;;;6.00;3.60;;;;;;;21.58;48.67;101527.84;5034637;28;20018;-64
2022/06/05 02:14:00;;;;;;;4.72;3.65;;;;;;;21.58;48.84;101511.09;5034879;28;20053;-65
2022/06/05 02:16:28;;;;;;;5.93;3.75;;;;;;;21.57;48.51;101502.31;5034005;28;20029;-64
2022/06/05 02:18:53;;;;;;;5.38;3.47;;;;;;;21.56;48.67;101487.38;5034309;28;20030;-64
2022/06/05 02:21:19;;;;;;;6.38;3.72;;;;;;;21.57;48.72;101491.72;5034791;28;20040;-65
2022/06/05 02:23:44;;;;;;;5.57;3.95;;;;;;;21.56;48.60;101485.53;5033865;28;20029;-64
2022/06/05 02:26:10;;;;;;;4.85;3.70;;;;;;;21.56;48.62;101480.22;5034055;28;20100;-64
2022/06/05 02:28:37;;;;;;;4.60;3.40;;;;;;;21.55;48.92;101467.09;5033928;28;20022;-64
2022/06/05 02:31:16;;;;;;;4.70;3.70;;;;;;;21.55;48.74;101462.66;5034329;28;20025;-64
2022/06/05 02:33:53;;;;;;;5.45;3.67;;;;;;;21.55;48.77;101456.50;5034224;28;20056;-63
2022/06/05 02:36:29;;;;;;;5.13;3.83;;;;;;;21.53;48.51;101448.66;5033439;28;20034;-64
2022/06/05 02:39:21;;;;;;;6.20;3.88;;;;;;;21.54;48.69;101444.22;5034231;28;20048;-64
2022/06/05 02:42:02;;;;;;;4.60;3.55;;;;;;;21.53;49.01;101437.22;5034142;28;20040;-64
2022/06/05 02:44:41;;;;;;;4.65;3.60;;;;;;;21.53;48.88;101426.63;5032579;28;20033;-64
2022/06/05 02:47:32;;;;;;;5.38;3.63;;;;;;;21.52;48.89;101411.69;5034227;28;20091;-64
2022/06/05 02:50:16;;;;;;;5.80;3.63;;;;;;;21.52;49.02;101409.88;5032635;28;20430;-64
2022/06/05 02:52:41;;;;;;;4.70;3.50;;;;;;;21.52;48.79;101403.72;5033932;28;20043;-64
2022/06/05 02:55:20;;;;;;;4.35;3.40;;;;;;;21.52;48.98;101401.06;5033301;28;20029;-64
2022/06/05 02:57:45;;;;;;;4.55;3.50;;;;;;;21.49;49.09;101399.53;5033243;28;20083;-63
2022/06/05 03:00:14;;;;;;;5.10;3.60;;;;;;;21.50;49.14;101397.72;5033479;28;20404;-63
2022/06/05 03:05:24;;;;;;;5.40;3.80;;;;;;;21.49;48.70;101394.25;5032998;28;20045;-63
2022/06/05 03:07:49;;;;;;;4.38;3.42;;;;;;;21.49;49.18;101388.06;5033533;28;20025;-64
2022/06/05 03:10:16;;;;;;;4.50;3.50;;;;;;;21.50;49.08;101395.91;5033551;28;20515;-63
2022/06/05 03:12:41;;;;;;;4.63;3.53;;;;;;;21.48;48.98;101389.91;5032406;28;20048;-63
2022/06/05 03:15:07;;;;;;;4.97;3.30;;;;;;;21.48;48.78;101391.69;5033237;28;20384;-64
2022/06/05 03:17:32;;;;;;;4.80;3.55;;;;;;;21.48;48.88;101389.03;5033242;28;20033;-64
2022/06/05 03:20:01;;;;;;;5.18;3.47;;;;;;;21.47;48.78;101393.47;5032551;28;20030;-64
2022/06/05 03:22:26;;;;;;;4.55;3.55;;;;;;;21.46;48.62;101396.25;5033688;28;20025;-63
2022/06/05 03:24:52;;;;;;;5.43;3.33;;;;;;;21.48;49.01;101402.31;5032440;28;20021;-65
2022/06/05 03:27:19;;;;;;;4.50;3.47;;;;;;;21.46;48.74;101402.44;5033595;28;20021;-64
2022/06/05 03:29:45;;;;;;;4.45;3.35;;;;;;;21.46;48.54;101410.38;5033363;28;20025;-64
2022/06/05 03:32:11;;;;;;;4.93;3.50;;;;;;;21.45;48.72;101407.88;5032263;28;20388;-64
2022/06/05 03:34:36;;;;;;;4.93;3.47;;;;;;;21.46;48.72;101412.19;5033052;28;20049;-64
2022/06/05 03:37:04;;;;;;;4.88;3.30;;;;;;;21.44;48.77;101412.31;5032863;28;20053;-63
2022/06/05 03:39:35;;;;;;;4.53;3.33;;;;;;;21.46;48.65;101422.78;5032127;28;20498;-64
2022/06/05 03:42:01;;;;;;;5.72;3.67;;;;;;;21.44;48.53;101411.47;5033230;28;20035;-63
2022/06/05 03:44:27;;;;;;;4.95;3.65;;;;;;;21.44;48.50;101414.97;5033373;28;20376;-66
2022/06/05 03:46:52;;;;;;;4.93;3.42;;;;;;;21.43;48.64;101408.00;5032018;28;20035;-64
2022/06/05 03:49:18;;;;;;;5.13;3.58;;;;;;;21.43;48.73;101408.00;5033045;28;20022;-64
2022/06/05 03:51:45;;;;;;;5.25;3.53;;;;;;;21.44;48.70;101409.66;5033303;28;20034;-64
2022/06/05 03:54:10;;;;;;;5.75;3.40;;;;;;;21.43;48.50;101413.31;5032063;28;20116;-64
2022/06/05 03:56:36;;;;;;;4.85;3.30;;;;;;;21.43;48.47;101404.47;5032870;28;20544;-64
2022/06/05 03:59:01;;;;;;;5.47;3.75;;;;;;;21.39;48.44;101406.56;5032840;28;20022;-62
2022/06/05 04:01:32;;;;;;;4.82;3.50;;;;;;;21.41;48.48;101415.22;5032082;28;20030;-64
2022/06/05 04:04:01;;;;;;;4.85;3.35;;;;;;;21.42;48.90;101414.25;5032746;28;20064;-63
2022/06/05 04:06:30;;;;;;;4.60;3.42;;;;;;;21.42;48.55;101410.78;5033040;28;20075;-64
2022/06/05 04:09:00;;;;;;;5.88;3.72;;;;;;;21.41;48.50;101411.75;5031954;28;20021;-64
2022/06/05 04:11:28;;;;;;;4.55;3.40;;;;;;;21.42;48.43;101411.59;5032798;28;20065;-64
2022/06/05 04:13:53;;;;;;;5.00;3.70;;;;;;;21.41;48.67;101395.84;5032234;28;20037;-64
2022/06/05 04:16:28;;;;;;;5.07;3.65;;;;;;;21.40;48.49;101400.31;5032241;28;20044;-64
2022/06/05 04:18:53;;;;;;;4.50;3.40;;;;;;;21.40;48.37;101392.34;5032373;28;20484;-64
2022/06/05 04:21:27;;;;;;;5.53;3.45;;;;;;;21.39;48.50;101393.31;5031571;28;20041;-63
2022/06/05 04:23:53;;;;;;;6.05;3.85;;;;;;;21.40;48.32;101386.22;5033455;28;20346;-64
2022/06/05 04:26:22;;;;;;;5.13;3.38;;;;;;;21.38;48.53;101392.47;5036524;28;20522;-64
2022/06/05 04:28:48;;;;;;;5.70;3.50;;;;;;;21.38;48.37;101386.34;5035989;28;20083;-64
2022/06/05 04:31:28;;;;;;;4.57;3.30;;;;;;;21.38;48.30;101381.88;5036565;28;20100;-64
2022/06/05 04:33:59;;;;;;;5.60;3.42;;;;;;;21.38;48.31;101381.88;5036214;28;20034;-63
2022/06/05 04:36:25;;;;;;;4.57;3.25;;;;;;;21.37;48.26;101388.16;5035770;28;20029;-64
2022/06/05 04:38:51;;;;;;;5.18;3.65;;;;;;;21.37;48.26;101387.31;5036407;28;20369;-64
2022/06/05 04:41:25;;;;;;;4.32;3.20;;;;;;;21.37;48.40;101389.97;5036527;28;20029;-64
2022/06/05 04:43:52;;;;;;;4.50;3.35;;;;;;;21.37;48.17;101382.00;5035545;28;20112;-64
2022/06/05 04:46:24;;;;;;;5.88;3.40;;;;;;;21.36;48.39;101383.84;5036142;28;20540;-65
2022/06/05 04:48:50;;;;;;;4.60;3.60;;;;;;;21.37;48.29;101380.19;5036054;28;20032;-64
2022/06/05 04:51:18;;;;;;;5.95;3.42;;;;;;;21.37;48.13;101382.84;5035639;28;20029;-64
2022/06/05 04:53:44;;;;;;;5.35;3.55;;;;;;;21.36;48.27;101386.47;5036025;28;20069;-64
2022/06/05 04:56:13;;;;;;;4.82;3.22;;;;;;;21.38;48.18;101381.06;5035111;28;20107;-64
2022/06/05 04:58:39;;;;;;;5.00;3.25;;;;;;;21.36;48.19;101386.47;5036439;28;20021;-64
2022/06/05 05:01:16;;;;;;;4.60;3.40;;;;;;;21.37;47.98;101395.28;5035590;28;20028;-64
2022/06/05 05:03:42;;;;;;;5.22;3.40;;;;;;;21.36;48.40;101389.13;5035283;28;20018;-64
2022/06/05 05:06:08;;;;;;;4.60;3.30;;;;;;;21.36;48.25;101391.78;5035863;28;20063;-64
2022/06/05 05:08:34;;;;;;;4.88;3.45;;;;;;;21.35;48.13;101392.75;5035616;28;20029;-64
2022/06/05 05:10:59;;;;;;;4.78;3.30;;;;;;;21.36;48.21;101404.19;5035134;28;20025;-63
2022/06/05 05:13:28;;;;;;;4.72;3.40;;;;;;;21.36;48.01;101398.88;5035898;28;20487;-64
2022/06/05 05:15:55;;;;;;;4.50;3.10;;;;;;;21.35;48.39;101395.41;5035364;28;20126;-64
2022/06/05 05:18:21;;;;;;;4.65;3.58;;;;;;;21.35;48.08;101392.75;5034978;28;20120;-64
2022/06/05 05:20:49;;;;;;;4.82;3.42;;;;;;;21.36;48.05;101390.94;5035524;28;20472;-64
2022/06/05 05:23:15;;;;;;;5.32;3.58;;;;;;;21.34;48.30;101398.19;5035595;28;20021;-64
2022/06/05 05:25:40;;;;;;;6.05;3.60;;;;;;;21.35;48.18;101391.91;5035020;28;20075;-64
2022/06/05 05:28:06;;;;;;;5.10;3.30;;;;;;;21.35;48.21;101394.56;5035348;28;20022;-64
2022/06/05 05:30:33;;;;;;;7.15;4.82;;;;;;;21.35;48.15;101397.22;5035642;28;20101;-64
2022/06/05 05:32:58;;;;;;;5.40;3.40;;;;;;;21.35;48.24;101394.56;5034378;28;20048;-64
2022/06/05 05:35:24;;;;;;;4.53;3.25;;;;;;;21.35;48.26;101399.88;5034767;28;20455;-64
2022/06/05 05:37:49;;;;;;;4.68;3.40;;;;;;;21.34;48.11;101391.06;5034502;28;20027;-64
2022/06/05 05:42:59;;;;;;;5.63;3.50;;;;;;;21.34;48.15;101395.53;5035325;28;20048;-64
2022/06/05 05:45:24;;;;;;;4.73;3.33;;;;;;;21.35;48.45;101397.22;5034428;28;20392;-64
2022/06/05 05:47:50;;;;;;;4.95;3.30;;;;;;;21.34;48.05;101401.66;5034646;28;20263;-65
2022/06/05 05:50:15;;;;;;;5.45;3.30;;;;;;;21.33;48.10;101392.06;5035007;28;20025;-64
2022/06/05 05:52:43;;;;;;;4.50;3.13;;;;;;;21.33;48.36;101385.88;5034358;28;20025;-64
2022/06/05 05:55:15;;;;;;;4.70;3.35;;;;;;;21.33;48.13;101384.09;5034900;28;20590;-64
2022/06/05 05:57:46;;;;;;;4.70;3.58;;;;;;;21.33;48.15;101376.13;5035250;28;20393;-65
2022/06/05 06:00:13;;;;;;;5.38;3.50;;;;;;;21.32;48.31;101370.97;5033770;28;20025;-64
2022/06/05 06:02:39;;;;;;;4.85;3.40;;;;;;;21.33;48.01;101368.19;5034957;28;20472;-64
2022/06/05 06:05:06;;;;;;;4.75;3.58;;;;;;;21.34;47.89;101375.16;5034828;28;20022;-64
2022/06/05 06:07:32;;;;;;;4.53;3.15;;;;;;;21.32;48.12;101366.50;5034122;28;20056;-65
2022/06/05 06:09:57;;;;;;;5.10;3.13;;;;;;;21.33;48.09;101356.72;5034626;28;20105;-65
2022/06/05 06:12:23;;;;;;;4.68;3.35;;;;;;;21.32;48.06;101347.94;5035261;28;20025;-65
2022/06/05 06:14:49;;;;;;;5.00;3.17;;;;;;;21.32;48.27;101332.03;5034373;28;20032;-65
2022/06/05 06:17:16;;;;;;;5.22;3.42;;;;;;;21.33;48.10;101335.50;5035012;28;20041;-65
2022/06/05 06:19:41;;;;;;;5.30;3.28;;;;;;;21.32;48.07;101332.03;5035205;28;20419;-65
2022/06/05 06:22:16;;;;;;;4.53;3.15;;;;;;;21.34;48.13;101335.38;5034175;28;20518;-64
2022/06/05 06:24:41;;;;;;;5.63;3.30;;;;;;;21.34;48.10;101326.59;5034858;28;20075;-64
2022/06/05 06:27:06;;;;;;;4.43;3.20;;;;;;;21.34;48.33;101326.59;5034670;28;20018;-66
2022/06/05 06:29:35;;;;;;;4.50;3.25;;;;;;;21.35;48.09;101317.69;5033795;28;20289;-65
2022/06/05 06:32:01;;;;;;;4.53;3.40;;;;;;;21.35;48.32;101312.38;5034390;28;20025;-64
2022/06/05 06:34:26;;;;;;;6.40;3.30;;;;;;;21.34;48.12;101308.88;5034305;28;20515;-65
2022/06/05 06:36:51;;;;;;;5.13;3.10;;;;;;;21.35;48.06;101307.09;5033051;28;20030;-64
2022/06/05 06:39:18;;;;;;;5.40;3.35;;;;;;;21.36;48.54;101300.78;5033986;28;20036;-65
2022/06/05 06:41:43;;;;;;;6.35;3.78;;;;;;;21.36;48.72;101298.13;5005663;28;20075;-65
2022/06/05 06:44:15;;;;;;;4.90;3.60;;;;;;;21.37;48.90;101298.00;5033702;28;20033;-66
2022/06/05 06:46:40;;;;;;;5.60;3.17;;;;;;;21.39;48.89;101289.91;5034364;28;20048;-64
2022/06/05 06:49:05;;;;;;;7.15;3.08;;;;;;;21.40;49.13;101288.13;5032935;28;20025;-66
2022/06/05 06:51:31;;;;;;;4.57;3.35;;;;;;;21.41;48.94;101280.00;5032831;28;20025;-69
2022/06/05 06:53:57;;;;;;;4.68;3.30;;;;;;;21.42;48.97;101288.81;5033347;28;20079;-68
2022/06/05 06:56:30;;;;;;;5.78;3.13;;;;;;;21.44;49.39;101306.25;5032052;28;20037;-68
2022/06/05 06:58:58;;;;;;;4.95;3.20;;;;;;;21.45;49.28;101297.31;5033195;28;20051;-68
2022/06/05 07:01:23;;;;;;;5.40;3.08;;;;;;;21.47;49.14;101302.50;5033575;28;20025;-67
2022/06/05 07:03:49;;;;;;;8.60;3.40;;;;;;;21.48;49.45;101299.75;5032880;28;20373;-67
2022/06/05 07:06:14;;;;;;;5.00;3.22;;;;;;;21.47;49.39;101289.25;5033255;28;20025;-66
2022/06/05 07:08:41;;;;;;;5.88;3.08;;;;;;;21.48;49.39;101290.94;5033599;28;20026;-65
2022/06/05 07:11:08;;;;;;;5.82;3.38;;;;;;;21.51;49.43;101272.97;5032604;28;20056;-63
2022/06/05 07:13:35;;;;;;;5.30;3.47;;;;;;;21.47;49.59;101270.69;5033651;28;20022;-64
2022/06/05 07:16:00;;;;;;;6.07;3.15;;;;;;;21.51;49.29;101270.31;5033180;28;20030;-65
2022/06/05 07:18:26;;;;;;;5.10;3.47;;;;;;;21.52;49.58;101272.00;5032776;28;20101;-67
2022/06/05 07:20:51;;;;;;;5.20;3.05;;;;;;;21.53;49.27;101270.16;5033045;28;20034;-65
2022/06/05 07:23:17;;;;;;;4.90;3.20;;;;;;;21.54;49.37;101272.69;5032321;28;20075;-65
2022/06/05 07:25:48;;;;;;;4.78;3.30;;;;;;;21.55;49.59;101274.38;5032639;28;20437;-66
2022/06/05 07:28:15;;;;;;;4.72;3.00;;;;;;;21.56;49.75;101267.25;5033423;28;20110;-63
2022/06/05 07:30:44;;;;;;;5.57;3.50;;;;;;;21.57;50.21;101263.63;5033495;28;20423;-64
2022/06/05 07:33:10;;;;;;;6.35;3.45;;;;;;;21.59;50.00;101258.16;5032287;28;20025;-65
2022/06/05 07:35:35;;;;;;;7.05;3.10;;;;;;;21.59;50.18;101264.31;5032856;28;20053;-66
2022/06/05 07:38:01;;;;;;;5.00;3.10;;;;;;;21.59;49.90;101247.53;5032046;28;20027;-63
2022/06/05 07:40:26;;;;;;;5.85;3.40;;;;;;;21.60;50.04;101254.53;5033133;28;20117;-65
2022/06/05 07:42:54;;;;;;;5.15;3.40;;;;;;;21.62;50.15;101255.22;5032728;28;20037;-65
2022/06/05 07:45:20;;;;;;;5.18;3.20;;;;;;;21.63;49.91;101248.97;5032544;28;20033;-66
2022/06/05 07:47:45;;;;;;;4.22;3.00;;;;;;;21.63;50.03;101249.78;5033400;28;20539;-66
2022/06/05 07:50:12;;;;;;;5.15;3.40;;;;;;;21.65;50.34;101247.00;5032839;28;20404;-63
2022/06/05 07:55:27;;;;;;;5.35;3.10;;;;;;;21.66;50.03;101230.94;5033141;28;20488;-62
2022/06/05 07:57:55;;;;;;;4.75;3.08;;;;;;;21.68;50.04;101238.78;5032577;28;20037;-64
2022/06/05 08:00:21;;;;;;;4.70;3.10;;;;;;;21.68;50.14;101238.78;5031659;28;20030;-66
2022/06/05 08:02:49;;;;;;;4.63;3.20;;;;;;;21.68;50.31;101223.72;5032804;28;20472;-70
2022/06/05 08:05:15;;;;;;;4.95;3.20;;;;;;;21.69;49.99;101224.53;5032535;28;20029;-65
2022/06/05 08:07:40;;;;;;;4.78;3.05;;;;;;;21.68;50.09;101221.06;5032100;28;20044;-65
2022/06/05 08:10:09;;;;;;;5.40;3.10;;;;;;;21.69;49.77;101216.59;5032677;28;20072;-66
2022/06/05 08:12:35;;;;;;;6.30;3.40;;;;;;;21.69;49.97;101220.06;5032854;28;20116;-68
2022/06/05 08:15:08;;;;;;;6.25;3.40;;;;;;;21.69;49.81;101217.41;5031858;28;20033;-66
2022/06/05 08:17:35;;;;;;;4.50;3.50;;;;;;;21.70;50.34;101213.78;5033231;28;20029;-67
2022/06/05 08:20:01;;;;;;;6.40;3.20;;;;;;;21.72;50.05;101213.66;5032244;28;20022;-67
2022/06/05 08:22:29;;;;;;;5.32;3.30;;;;;;;21.73;50.17;101205.56;5032094;28;20045;-67
2022/06/05 08:24:55;;;;;;;5.40;3.13;;;;;;;21.73;50.01;101205.56;5032291;28;20025;-66
2022/06/05 08:27:27;;;;;;;4.55;3.35;;;;;;;21.73;50.29;101200.25;5032066;28;20071;-66
2022/06/05 08:29:55;;;;;;;5.00;3.25;;;;;;;21.75;49.83;101213.38;5032438;28;20021;-64
2022/06/05 08:32:22;;;;;;;4.55;3.58;;;;;;;21.75;50.11;101208.06;5032869;28;20057;-64
2022/06/05 08:34:48;;;;;;;5.85;3.60;;;;;;;21.76;49.87;101203.59;5031834;28;20057;-66
2022/06/05 08:43:07;;;;;;;5.20;3.28;;;;;;;21.79;50.02;101208.63;5031377;28;20040;-65
2022/06/05 08:46:04;;;;;;;5.32;2.95;;;;;;;21.80;50.14;101210.31;5032672;28;20104;-67
2022/06/05 08:48:36;;;;;;;4.82;3.35;;;;;;;21.80;50.14;101210.31;5010899;28;20084;-65
2022/06/05 08:51:26;;;;;;;5.47;3.45;;;;;;;21.79;50.20;101208.63;5031892;28;20080;-64
2022/06/05 08:54:03;;;;;;;6.47;3.35;;;;;;;21.80;50.19;101216.44;5023377;28;20083;-67
2022/06/05 08:56:42;;;;;;;7.47;3.33;;;;;;;21.80;50.14;101215.63;5031552;28;20068;-64
2022/06/05 08:59:17;;;;;;;5.40;3.90;;;;;;;21.81;50.50;101215.47;5032041;28;20033;-70
2022/06/05 09:01:55;;;;;;;5.07;3.22;;;;;;;21.82;50.22;101217.13;5031546;28;20374;-66
2022/06/05 09:04:45;;;;;;;5.80;3.55;;;;;;;21.84;50.17;101219.66;5031674;28;20024;-65
2022/06/05 09:07:15;;;;;;;4.50;3.08;;;;;;;21.85;50.30;101224.81;5032257;28;20034;-65
2022/06/05 09:09:50;;;;;;;5.78;3.58;;;;;;;21.86;50.17;101223.00;5031442;28;20030;-65
2022/06/05 09:12:24;;;;;;;5.50;3.38;;;;;;;21.85;50.54;101214.19;5034570;28;20033;-65
2022/06/05 09:14:58;;;;;;;6.68;3.80;;;;;;;21.85;50.34;101214.19;5035431;28;20055;-65
2022/06/05 09:17:24;;;;;;;5.18;3.53;;;;;;;21.86;50.46;101212.41;5035247;28;20068;-66
2022/06/05 09:19:52;;;;;;;5.40;3.58;;;;;;;21.84;50.46;101217.00;5035388;28;20026;-65
2022/06/05 09:22:25;;;;;;;5.70;3.58;;;;;;;21.83;50.76;101210.84;5035633;28;20025;-65
2022/06/05 09:25:26;;;;;;;4.60;3.60;;;;;;;21.84;50.89;101206.38;5034874;28;20026;-65
2022/06/05 09:28:06;;;;;;;4.88;3.47;;;;;;;21.84;50.56;101207.25;5035005;28;20026;-64
2022/06/05 09:30:45;;;;;;;5.70;3.38;;;;;;;21.83;50.93;101204.72;5035007;28;20044;-63
2022/06/05 09:33:30;;;;;;;5.18;3.83;;;;;;;21.83;50.62;101208.19;5035031;28;20022;-64
2022/06/05 09:35:59;;;;;;;5.38;3.72;;;;;;;21.83;50.85;101205.56;5036513;28;20042;-64
2022/06/05 09:38:48;;;;;;;7.03;3.40;;;;;;;21.83;50.57;101202.91;5036670;28;20084;-64
2022/06/05 09:41:53;;;;;;;5.97;3.67;;;;;;;21.82;51.05;101198.56;5036962;28;20025;-63
2022/06/05 09:44:31;;;;;;;6.80;3.70;;;;;;;21.83;50.98;101199.41;5036530;28;20029;-62
2022/06/05 09:46:59;;;;;;;6.07;3.38;;;;;;;21.83;50.69;101194.94;5036182;28;20029;-65
2022/06/05 09:49:36;;;;;;;5.22;3.80;;;;;;;21.82;50.88;101181.81;5036422;28;20037;-64
2022/06/05 09:52:21;;;;;;;6.03;3.70;;;;;;;21.84;51.22;101179.84;5035917;28;20022;-63
2022/06/05 09:55:14;;;;;;;4.47;3.45;;;;;;;21.85;50.98;101168.28;5035907;28;20071;-63
2022/06/05 10:00:49;;;;;;;6.43;3.50;;;;;;;21.89;50.64;101151.09;5035624;28;20403;-63
2022/06/05 10:03:21;;;;;;;4.30;3.45;;;;;;;21.91;50.45;101157.91;5036698;28;20049;-67
2022/06/05 10:06:10;;;;;;;6.82;3.70;;;;;;;21.93;50.79;101153.28;5036155;28;20029;-63
2022/06/05 10:08:54;;;;;;;7.35;3.70;;;;;;;21.95;50.87;101153.16;5036425;28;20040;-64
2022/06/05 10:11:22;;;;;;;5.13;3.78;;;;;;;21.97;50.83;101148.56;5036229;28;20029;-63
2022/06/05 10:14:14;;;;;;;5.13;3.45;;;;;;;22.01;50.37;101149.09;5035720;28;20440;-62
2022/06/05 10:17:09;;;;;;;6.85;3.65;;;;;;;22.03;50.52;101148.00;5035973;28;20163;-63
2022/06/05 10:19:57;;;;;;;6.13;3.50;;;;;;;22.05;50.79;101153.16;5035719;28;20036;-64
2022/06/05 10:22:48;;;;;;;5.03;3.75;;;;;;;22.06;50.42;101153.03;5035581;28;20100;-66
2022/06/05 10:25:44;;;;;;;6.25;3.72;;;;;;;22.09;50.78;101157.19;5035267;28;20037;-63
2022/06/05 10:28:17;;;;;;;4.90;3.65;;;;;;;22.10;50.89;101150.91;5035168;28;20112;-67
2022/06/05 10:31:05;;;;;;;6.43;4.15;;;;;;;22.13;50.65;101147.13;5036147;28;20349;-64
2022/06/05 10:33:31;;;;;;;5.28;3.63;;;;;;;22.14;50.58;101152.28;5025891;28;20068;-64
2022/06/05 10:36:06;;;;;;;6.55;3.97;;;;;;;22.15;50.81;101148.66;5035214;28;20404;-65
2022/06/05 10:38:42;;;;;;;7.43;3.67;;;;;;;22.17;50.80;101135.25;5035869;28;20029;-65
2022/06/05 10:41:37;;;;;;;8.23;4.05;;;;;;;22.17;51.24;101141.38;5034818;28;20029;-64
2022/06/05 10:44:38;;;;;;;6.32;3.80;;;;;;;22.18;51.01;101143.06;5035224;28;20539;-62
2022/06/05 10:47:27;;;;;;;5.97;4.30;;;;;;;22.21;51.28;101139.28;5033927;28;20056;-64
2022/06/05 10:50:12;;;;;;;6.20;4.22;;;;;;;22.22;51.16;101138.28;5033041;28;20029;-61
2022/06/05 10:52:48;;;;;;;7.80;4.13;;;;;;;22.21;51.18;101133.97;5034239;28;20029;-60
2022/06/05 10:55:35;;;;;;;9.55;3.70;;;;;;;22.25;51.05;101140.66;5033208;28;20030;-61
2022/06/05 10:58:25;;;;;;;7.10;4.43;;;;;;;22.23;51.40;101138.16;5033761;28;20052;-62
2022/06/05 11:00:56;;;;;;;5.55;3.95;;;;;;;22.22;51.26;101140.94;5033528;28;20029;-61
2022/06/05 11:03:36;;;;;;;7.18;4.45;;;;;;;22.20;51.63;101140.25;5033382;28;20393;-64
2022/06/05 11:06:42;;;;;;;5.65;4.22;;;;;;;22.18;51.64;101142.22;5033227;28;20056;-62
2022/06/05 11:09:31;;;;;;;5.35;4.22;;;;;;;22.16;52.14;101144.16;5032873;28;20037;-63
2022/06/05 11:15:04;;;;;;;6.47;4.38;;;;;;;22.09;52.19;101139.44;5033382;28;20479;-62
2022/06/05 11:17:30;;;;;;;6.50;4.03;;;;;;;22.09;52.56;101143.91;5032833;28;20037;-61
2022/06/05 11:20:09;;;;;;;5.43;4.38;;;;;;;22.06;52.62;101133.59;5033083;28;20461;-61
2022/06/05 11:22:51;;;;;;;7.55;4.47;;;;;;;22.03;52.69;101124.13;5033542;28;20437;-61
2022/06/05 11:25:23;;;;;;;4.97;4.28;;;;;;;22.03;52.73;101131.22;5032203;28;20040;-62
2022/06/05 11:27:51;;;;;;;6.55;4.40;;;;;;;22.01;52.94;101120.75;5032950;28;20044;-62
2022/06/05 11:30:43;;;;;;;5.55;4.18;;;;;;;22.00;53.23;101112.94;5032317;28;20079;-60
2022/06/05 11:33:27;;;;;;;6.15;4.40;;;;;;;21.97;53.38;101116.72;5001849;28;20072;-59
2022/06/05 11:36:19;;;;;;;7.47;4.68;;;;;;;21.95;53.56;101107.22;5032267;28;20045;-61
2022/06/05 11:39:03;;;;;;;7.15;4.57;;;;;;;21.95;53.29;101104.56;5032520;28;20033;-62
2022/06/05 11:42:01;;;;;;;8.45;4.93;;;;;;;21.93;53.58;101104.72;5032898;28;20037;-61
2022/06/05 11:44:37;;;;;;;7.95;4.55;;;;;;;21.92;53.98;101095.06;5032561;28;20425;-63
2022/06/05 11:47:10;;;;;;;6.72;4.40;;;;;;;21.91;54.04;101096.06;5032403;28;20029;-60
2022/06/05 11:50:03;;;;;;;6.50;4.40;;;;;;;21.90;54.10;101103.19;5032998;28;20083;-62
2022/06/05 11:52:36;;;;;;;7.13;4.75;;;;;;;21.86;54.33;101099.16;5032028;28;20040;-63
2022/06/05 11:55:10;;;;;;;6.40;4.45;;;;;;;21.88;54.27;101096.34;5032798;28;20428;-61
2022/06/05 11:57:48;;;;;;;9.60;4.60;;;;;;;21.87;54.18;101105.28;5033118;28;20036;-61
2022/06/05 12:00:18;;;;;;;6.13;4.70;;;;;;;21.86;54.48;101101.78;5032657;28;20029;-61
2022/06/05 12:02:51;;;;;;;7.78;5.20;;;;;;;21.87;54.65;101103.47;5033616;28;20029;-61
2022/06/05 12:05:47;;;;;;;5.95;4.43;;;;;;;21.85;54.71;101096.63;5034012;28;20036;-60
2022/06/05 12:08:18;;;;;;;7.97;5.10;;;;;;;21.83;54.67;101085.34;5028393;28;20369;-61